Time;durP1;ratioP1;P1;durP2;ratioP2;P2;SDS_P1;SDS_P2;PMS_P1;PMS_P2;Temp;Humidity;BMP_temperature;BMP_pressure;BME280_temperature;BME280_humidity;BME280_pressure;Samples;Min_cycle;Max_cycle;Signal;HPM_P1;HPM_P2
2022/07/12 00:01:36;;;;;;;7.83;5.07;;;;;;;;;;5091410;28;20500;-73
2022/07/12 00:04:03;;;;;;;8.50;5.53;;;;;;;;;;5091342;28;20093;-72
2022/07/12 00:06:30;;;;;;;6.43;5.13;;;;;;;;;;5091604;28;20101;-72
2022/07/12 00:08:56;;;;;;;6.07;4.80;;;;;;;;;;5089978;28;20048;-72
2022/07/12 00:11:23;;;;;;;5.27;4.47;;;;;;;;;;5091512;28;20105;-73
2022/07/12 00:13:50;;;;;;;6.25;4.55;;;;;;;;;;5091655;28;20044;-73
2022/07/12 00:16:16;;;;;;;5.22;4.03;;;;;;;;;;5091242;28;20647;-73
2022/07/12 00:18:43;;;;;;;7.65;4.15;;;;;;;;;;5091534;28;20105;-73
2022/07/12 00:21:09;;;;;;;4.90;3.60;;;;;;;;;;5091185;28;20519;-73
2022/07/12 00:23:36;;;;;;;4.73;3.30;;;;;;;;;;5094060;28;20051;-73
2022/07/12 00:26:04;;;;;;;7.30;3.80;;;;;;;;;;5093714;28;20105;-72
2022/07/12 00:28:31;;;;;;;4.30;3.38;;;;;;;;;;5094866;28;20400;-72
2022/07/12 00:30:58;;;;;;;4.95;3.95;;;;;;;;;;5095193;28;20105;-72
2022/07/12 00:33:24;;;;;;;5.63;3.78;;;;;;;;;;5094904;28;20070;-72
2022/07/12 00:35:51;;;;;;;4.93;3.55;;;;;;;;;;5094919;28;20040;-72
2022/07/12 00:38:17;;;;;;;4.47;3.77;;;;;;;;;;5094987;28;20117;-72
2022/07/12 00:40:44;;;;;;;5.43;3.60;;;;;;;;;;5094896;28;20101;-72
2022/07/12 00:43:11;;;;;;;6.13;4.23;;;;;;;;;;5094820;28;20105;-72
2022/07/12 00:45:37;;;;;;;5.45;3.97;;;;;;;;;;5094621;28;20292;-72
2022/07/12 00:48:04;;;;;;;6.83;4.40;;;;;;;;;;5094498;28;20074;-72
2022/07/12 00:50:30;;;;;;;6.10;4.22;;;;;;;;;;5094298;28;20048;-73
2022/07/12 00:52:58;;;;;;;5.55;4.38;;;;;;;;;;5094532;28;20113;-72
2022/07/12 00:55:24;;;;;;;;;;;;;;;;;;5094894;28;20043;-72
2022/07/12 00:57:51;;;;;;;6.38;3.83;;;;;;;;;;5094582;28;19920;-72
2022/07/12 01:00:20;;;;;;;8.15;5.10;;;;;;;;;;5094409;28;20495;-72
2022/07/12 01:02:46;;;;;;;8.32;4.82;;;;;;;;;;5094200;28;20397;-72
2022/07/12 01:05:14;;;;;;;7.53;5.47;;;;;;;;;;5094390;28;20047;-72
2022/07/12 01:07:41;;;;;;;7.00;4.60;;;;;;;;;;5093130;28;20048;-72
2022/07/12 01:10:08;;;;;;;5.95;4.22;;;;;;;;;;5094460;28;20276;-72
2022/07/12 01:12:34;;;;;;;5.80;4.57;;;;;;;;;;5094253;28;20048;-72
2022/07/12 01:15:01;;;;;;;7.97;5.13;;;;;;;;;;5092705;28;20476;-72
2022/07/12 01:17:28;;;;;;;8.13;4.60;;;;;;;;;;5093927;28;20433;-72
2022/07/12 01:19:55;;;;;;;8.50;4.63;;;;;;;;;;5094158;28;20056;-72
2022/07/12 01:22:32;;;;;;;5.93;4.43;;;;;;;;;;5094172;28;20048;-72
2022/07/12 01:24:59;;;;;;;6.43;4.38;;;;;;;;;;5094085;28;20044;-72
2022/07/12 01:27:26;;;;;;;4.18;2.90;;;;;;;;;;5093845;28;20052;-72
2022/07/12 01:29:53;;;;;;;3.70;2.83;;;;;;;;;;5093696;28;20048;-72
2022/07/12 01:32:25;;;;;;;4.20;3.00;;;;;;;;;;5093692;28;20496;-72
2022/07/12 01:34:52;;;;;;;4.25;2.55;;;;;;;;;;5093733;28;20105;-72
2022/07/12 01:37:19;;;;;;;3.23;2.93;;;;;;;;;;5093750;28;20097;-72
2022/07/12 01:39:47;;;;;;;5.55;3.75;;;;;;;;;;5093848;28;20044;-72
2022/07/12 01:42:13;;;;;;;4.00;3.28;;;;;;;;;;5093771;28;20117;-72
2022/07/12 01:44:41;;;;;;;5.40;3.40;;;;;;;;;;5093777;28;20104;-73
2022/07/12 01:47:07;;;;;;;4.22;3.17;;;;;;;;;;5093750;28;20281;-73
2022/07/12 01:49:34;;;;;;;5.43;3.43;;;;;;;;;;5093458;28;20160;-72
2022/07/12 01:52:00;;;;;;;4.97;3.27;;;;;;;;;;5093686;28;20382;-72
2022/07/12 01:54:27;;;;;;;3.22;2.53;;;;;;;;;;5093537;28;20061;-72
2022/07/12 01:56:54;;;;;;;3.00;2.70;;;;;;;;;;5092271;28;20089;-72
2022/07/12 01:59:20;;;;;;;2.30;1.88;;;;;;;;;;5093297;28;20048;-72
2022/07/12 02:01:48;;;;;;;3.22;1.80;;;;;;;;;;5093459;28;20055;-72
2022/07/12 02:04:18;;;;;;;2.60;2.20;;;;;;;;;;5093270;28;20442;-72
2022/07/12 02:06:45;;;;;;;3.47;2.28;;;;;;;;;;5093212;28;20051;-72
2022/07/12 02:09:12;;;;;;;4.57;2.40;;;;;;;;;;5092902;28;20048;-72
2022/07/12 02:11:39;;;;;;;4.75;2.63;;;;;;;;;;5092869;28;20043;-72
2022/07/12 02:14:06;;;;;;;3.28;2.72;;;;;;;;;;5093136;28;20101;-72
2022/07/12 02:16:32;;;;;;;4.35;2.90;;;;;;;;;;5092977;28;20097;-72
2022/07/12 02:18:59;;;;;;;3.58;2.50;;;;;;;;;;5092442;28;20097;-72
2022/07/12 02:21:26;;;;;;;3.77;2.63;;;;;;;;;;5091779;28;20082;-72
2022/07/12 02:23:52;;;;;;;3.30;2.80;;;;;;;;;;5092725;28;20314;-72
2022/07/12 02:26:19;;;;;;;5.73;3.10;;;;;;;;;;5091345;28;20048;-72
2022/07/12 02:28:46;;;;;;;5.73;2.87;;;;;;;;;;5092889;28;20097;-72
2022/07/12 02:31:12;;;;;;;4.63;3.03;;;;;;;;;;5092899;28;20097;-72
2022/07/12 02:33:39;;;;;;;7.13;2.93;;;;;;;;;;5092740;28;20044;-72
2022/07/12 02:36:06;;;;;;;4.60;3.00;;;;;;;;;;5092477;28;20363;-72
2022/07/12 02:38:32;;;;;;;4.93;2.30;;;;;;;;;;5092776;28;20048;-72
2022/07/12 02:40:59;;;;;;;3.53;2.80;;;;;;;;;;5092544;28;20090;-72
2022/07/12 02:43:26;;;;;;;3.45;2.97;;;;;;;;;;5091134;28;20047;-72
2022/07/12 02:45:53;;;;;;;;;;;;;;;;;;5092464;28;20540;-72
2022/07/12 02:48:19;;;;;;;2.80;2.43;;;;;;;;;;5092277;28;19923;-72
2022/07/12 02:50:46;;;;;;;2.63;2.40;;;;;;;;;;5092004;28;20334;-72
2022/07/12 02:53:12;;;;;;;4.88;2.53;;;;;;;;;;5092240;28;20791;-72
2022/07/12 02:55:40;;;;;;;3.83;2.30;;;;;;;;;;5092370;28;20059;-72
2022/07/12 02:58:07;;;;;;;2.50;2.17;;;;;;;;;;5092442;28;20047;-72
2022/07/12 03:00:34;;;;;;;3.70;2.30;;;;;;;;;;5092429;28;20048;-72
2022/07/12 03:03:01;;;;;;;3.50;2.78;;;;;;;;;;5092306;28;20051;-72
2022/07/12 03:05:28;;;;;;;4.07;2.33;;;;;;;;;;5092140;28;20465;-72
2022/07/12 03:07:54;;;;;;;2.50;2.30;;;;;;;;;;5091824;28;20052;-72
2022/07/12 03:10:21;;;;;;;2.30;2.00;;;;;;;;;;5092269;28;20067;-72
2022/07/12 03:12:47;;;;;;;3.03;1.80;;;;;;;;;;5092112;28;20095;-72
2022/07/12 03:15:14;;;;;;;3.15;2.50;;;;;;;;;;5091821;28;20050;-72
2022/07/12 03:17:41;;;;;;;2.53;2.08;;;;;;;;;;5091925;28;20044;-72
2022/07/12 03:20:11;;;;;;;4.57;2.13;;;;;;;;;;5092095;28;20040;-72
2022/07/12 03:22:37;;;;;;;3.60;2.05;;;;;;;;;;5091766;28;20048;-72
2022/07/12 03:25:04;;;;;;;3.45;2.40;;;;;;;;;;5091613;28;20054;-72
2022/07/12 03:27:31;;;;;;;4.07;2.80;;;;;;;;;;5092081;28;20056;-72
2022/07/12 03:30:00;;;;;;;3.47;2.88;;;;;;;;;;5091870;28;20297;-72
2022/07/12 03:32:26;;;;;;;3.83;3.17;;;;;;;;;;5091707;28;20089;-72
2022/07/12 03:34:53;;;;;;;3.40;2.53;;;;;;;;;;5091616;28;20056;-72
2022/07/12 03:37:19;;;;;;;4.60;3.17;;;;;;;;;;5090981;28;20048;-72
2022/07/12 03:39:46;;;;;;;8.40;4.45;;;;;;;;;;5091573;28;20065;-72
2022/07/12 03:42:12;;;;;;;5.53;3.58;;;;;;;;;;5091564;28;20553;-72
2022/07/12 03:44:39;;;;;;;4.22;3.60;;;;;;;;;;5091829;28;20469;-72
2022/07/12 03:47:05;;;;;;;2.93;2.53;;;;;;;;;;5091838;28;20446;-73
2022/07/12 03:49:32;;;;;;;3.33;2.63;;;;;;;;;;5091037;28;20040;-71
2022/07/12 03:51:58;;;;;;;3.78;2.75;;;;;;;;;;5091096;28;20056;-72
2022/07/12 03:54:25;;;;;;;3.00;2.63;;;;;;;;;;5090019;28;20109;-72
2022/07/12 03:59:36;;;;;;;4.60;2.92;;;;;;;;;;5095081;28;20163;-71
2022/07/12 04:02:07;;;;;;;3.78;2.10;;;;;;;;;;5095008;28;20506;-71
2022/07/12 04:04:34;;;;;;;3.97;2.37;;;;;;;;;;5095011;28;20040;-72
2022/07/12 04:07:00;;;;;;;3.90;2.20;;;;;;;;;;5095272;28;20048;-72
2022/07/12 04:09:27;;;;;;;3.95;2.30;;;;;;;;;;5095204;28;20304;-70
2022/07/12 04:11:53;;;;;;;1.83;1.73;;;;;;;;;;5094601;28;20453;-71
2022/07/12 04:14:20;;;;;;;4.75;2.35;;;;;;;;;;5095343;28;20082;-70
2022/07/12 04:16:46;;;;;;;3.17;1.98;;;;;;;;;;5094763;28;20040;-70
2022/07/12 04:19:13;;;;;;;2.83;2.10;;;;;;;;;;5094937;28;20102;-71
2022/07/12 04:21:39;;;;;;;2.28;2.08;;;;;;;;;;5094680;28;20044;-71
2022/07/12 04:24:06;;;;;;;1.88;1.77;;;;;;;;;;5094471;28;20078;-71
2022/07/12 04:26:33;;;;;;;2.72;2.20;;;;;;;;;;5094571;28;20101;-71
2022/07/12 04:28:59;;;;;;;2.83;1.83;;;;;;;;;;5094427;28;20040;-71
2022/07/12 04:31:26;;;;;;;1.75;1.65;;;;;;;;;;5094465;28;20388;-71
2022/07/12 04:33:52;;;;;;;2.08;1.85;;;;;;;;;;5094674;28;20043;-71
2022/07/12 04:36:19;;;;;;;3.13;1.60;;;;;;;;;;5094396;28;20044;-71
2022/07/12 04:38:45;;;;;;;2.10;1.98;;;;;;;;;;5094649;28;20101;-71
2022/07/12 04:41:12;;;;;;;3.17;2.30;;;;;;;;;;5091651;28;20044;-71
2022/07/12 04:43:38;;;;;;;4.22;2.80;;;;;;;;;;5094240;28;20048;-70
2022/07/12 04:46:09;;;;;;;3.45;1.90;;;;;;;;;;5094113;28;20090;-71
2022/07/12 04:48:36;;;;;;;3.10;1.70;;;;;;;;;;5094324;28;20048;-71
2022/07/12 04:51:02;;;;;;;3.40;2.38;;;;;;;;;;5094155;28;20056;-70
2022/07/12 04:53:29;;;;;;;3.50;2.25;;;;;;;;;;5094273;28;20044;-71
2022/07/12 04:55:55;;;;;;;2.33;2.13;;;;;;;;;;5094071;28;20556;-71
2022/07/12 04:58:23;;;;;;;3.67;2.60;;;;;;;;;;5094016;28;20048;-70
2022/07/12 05:00:49;;;;;;;2.55;1.77;;;;;;;;;;5094353;28;20047;-71
2022/07/12 05:03:16;;;;;;;2.95;2.10;;;;;;;;;;5094347;28;20063;-71
2022/07/12 05:05:43;;;;;;;2.28;1.80;;;;;;;;;;5094459;28;20117;-71
2022/07/12 05:08:10;;;;;;;2.20;1.60;;;;;;;;;;5093718;28;20056;-71
2022/07/12 05:10:36;;;;;;;2.58;1.98;;;;;;;;;;5094460;28;20449;-71
2022/07/12 05:13:03;;;;;;;2.85;1.92;;;;;;;;;;5094355;28;20041;-71
2022/07/12 05:15:29;;;;;;;2.08;1.63;;;;;;;;;;5093967;28;20093;-71
2022/07/12 05:17:56;;;;;;;4.23;2.03;;;;;;;;;;5092512;28;20089;-71
2022/07/12 05:20:22;;;;;;;2.20;1.80;;;;;;;;;;5093755;28;20044;-70
2022/07/12 05:22:49;;;;;;;4.30;1.87;;;;;;;;;;5093896;28;20044;-70
2022/07/12 05:25:16;;;;;;;4.57;1.77;;;;;;;;;;5092138;28;20056;-71
2022/07/12 05:27:43;;;;;;;3.92;2.08;;;;;;;;;;5093814;28;20101;-71
2022/07/12 05:30:10;;;;;;;3.10;2.20;;;;;;;;;;5093584;28;20043;-71
2022/07/12 05:32:36;;;;;;;2.33;2.13;;;;;;;;;;5094082;28;20108;-71
2022/07/12 05:35:03;;;;;;;3.15;2.08;;;;;;;;;;5093655;28;20098;-71
2022/07/12 05:37:29;;;;;;;3.13;2.10;;;;;;;;;;5078628;28;20048;-71
2022/07/12 05:39:56;;;;;;;2.42;2.22;;;;;;;;;;5087540;28;20062;-71
2022/07/12 05:42:22;;;;;;;4.38;2.00;;;;;;;;;;5090126;28;20047;-71
2022/07/12 05:44:49;;;;;;;2.33;2.13;;;;;;;;;;5092903;28;20052;-71
2022/07/12 05:47:15;;;;;;;3.78;2.65;;;;;;;;;;5093109;28;20454;-71
2022/07/12 05:49:42;;;;;;;2.38;2.17;;;;;;;;;;5092599;28;20098;-71
2022/07/12 05:54:53;;;;;;;2.67;1.90;;;;;;;;;;5090633;28;20055;-71
2022/07/12 05:57:20;;;;;;;2.50;2.10;;;;;;;;;;5092547;28;20040;-70
2022/07/12 05:59:46;;;;;;;3.17;1.70;;;;;;;;;;5092593;28;20048;-70
2022/07/12 06:02:13;;;;;;;2.53;1.90;;;;;;;;;;5092241;28;20048;-71
2022/07/12 06:04:40;;;;;;;2.75;2.17;;;;;;;;;;5092465;28;20102;-71
2022/07/12 06:07:10;;;;;;;3.50;2.50;;;;;;;;;;5090194;28;20079;-71
2022/07/12 06:09:36;;;;;;;2.50;2.30;;;;;;;;;;5092460;28;20113;-71
2022/07/12 06:12:03;;;;;;;3.23;2.30;;;;;;;;;;5087413;28;20109;-71
2022/07/12 06:14:29;;;;;;;6.22;3.00;;;;;;;;;;5090934;28;20109;-71
2022/07/12 06:16:56;;;;;;;6.65;3.95;;;;;;;;;;5091504;28;20109;-71
2022/07/12 06:19:23;;;;;;;7.60;3.10;;;;;;;;;;5091386;28;20051;-71
2022/07/12 06:21:49;;;;;;;3.67;2.60;;;;;;;;;;5090586;28;20385;-71
2022/07/12 06:24:16;;;;;;;3.90;2.20;;;;;;;;;;5090405;28;20097;-71
2022/07/12 06:26:42;;;;;;;3.33;2.10;;;;;;;;;;5089541;28;20094;-71
2022/07/12 06:29:09;;;;;;;2.80;2.00;;;;;;;;;;5091606;28;20454;-72
2022/07/12 06:31:35;;;;;;;2.77;2.00;;;;;;;;;;5091731;28;20449;-68
2022/07/12 06:34:02;;;;;;;3.63;1.90;;;;;;;;;;5091757;28;20112;-67
2022/07/12 06:36:29;;;;;;;3.33;2.10;;;;;;;;;;5091858;28;20109;-68
2022/07/12 06:38:55;;;;;;;3.30;1.97;;;;;;;;;;5091832;28;20396;-67
2022/07/12 06:41:22;;;;;;;2.60;1.90;;;;;;;;;;5092092;28;20112;-69
2022/07/12 06:43:48;;;;;;;2.83;1.57;;;;;;;;;;5091621;28;20454;-67
2022/07/12 06:46:15;;;;;;;3.33;2.20;;;;;;;;;;5091920;28;20048;-71
2022/07/12 06:48:41;;;;;;;2.63;1.80;;;;;;;;;;5091307;28;20048;-71
2022/07/12 06:51:08;;;;;;;2.77;2.03;;;;;;;;;;5091784;28;20044;-71
2022/07/12 06:53:34;;;;;;;4.05;2.13;;;;;;;;;;5092122;28;20044;-71
2022/07/12 06:56:01;;;;;;;2.13;1.80;;;;;;;;;;5092160;28;20098;-69
2022/07/12 06:58:28;;;;;;;3.80;1.73;;;;;;;;;;5091615;28;20487;-71
2022/07/12 07:00:54;;;;;;;2.17;1.80;;;;;;;;;;5091756;28;20840;-71
2022/07/12 07:03:21;;;;;;;2.50;1.67;;;;;;;;;;5092044;28;20051;-72
2022/07/12 07:05:47;;;;;;;2.50;1.92;;;;;;;;;;5092311;28;20059;-71
2022/07/12 07:08:14;;;;;;;2.30;2.10;;;;;;;;;;5091415;28;20043;-71
2022/07/12 07:10:40;;;;;;;3.65;1.77;;;;;;;;;;5091585;28;20488;-71
2022/07/12 07:13:07;;;;;;;5.43;2.17;;;;;;;;;;5091148;28;20093;-71
2022/07/12 07:15:34;;;;;;;3.47;1.70;;;;;;;;;;5091325;28;20044;-71
2022/07/12 07:18:01;;;;;;;1.70;1.60;;;;;;;;;;5091351;28;20101;-71
2022/07/12 07:20:27;;;;;;;3.88;1.60;;;;;;;;;;5088546;28;20051;-71
2022/07/12 07:22:54;;;;;;;4.30;1.90;;;;;;;;;;5091837;28;20129;-70
2022/07/12 07:25:21;;;;;;;3.40;1.70;;;;;;;;;;5091732;28;20307;-69
2022/07/12 07:27:47;;;;;;;2.93;1.50;;;;;;;;;;5091706;28;20491;-73
2022/07/12 07:32:59;;;;;;;3.15;1.80;;;;;;;;;;5092090;28;20098;-69
2022/07/12 07:35:26;;;;;;;3.72;1.80;;;;;;;;;;5091083;28;20048;-70
2022/07/12 07:37:52;;;;;;;5.20;1.90;;;;;;;;;;5091594;28;20389;-70
2022/07/12 07:40:19;;;;;;;4.88;1.73;;;;;;;;;;5091226;28;20052;-70
2022/07/12 07:42:45;;;;;;;2.25;1.10;;;;;;;;;;5091483;28;20044;-70
2022/07/12 07:45:12;;;;;;;3.58;1.48;;;;;;;;;;5090125;28;20056;-70
2022/07/12 07:47:48;;;;;;;2.47;1.13;;;;;;;;;;5091706;28;20044;-70
2022/07/12 07:50:34;;;;;;;2.78;1.50;;;;;;;;;;5091295;28;20139;-70
2022/07/12 07:53:01;;;;;;;3.97;1.67;;;;;;;;;;5091791;28;20047;-70
2022/07/12 07:55:27;;;;;;;3.03;1.40;;;;;;;;;;5091242;28;20496;-70
2022/07/12 07:57:54;;;;;;;5.07;1.48;;;;;;;;;;5091277;28;20047;-70
2022/07/12 08:00:21;;;;;;;4.43;1.92;;;;;;;;;;5091596;28;20131;-70
2022/07/12 08:02:47;;;;;;;3.63;1.65;;;;;;;;;;5091655;28;20052;-70
2022/07/12 08:05:14;;;;;;;2.97;1.58;;;;;;;;;;5091520;28;20048;-70
2022/07/12 08:07:40;;;;;;;4.32;1.70;;;;;;;;;;5091651;28;20385;-70
2022/07/12 08:10:20;;;;;;;5.15;2.20;;;;;;;;;;5091584;28;20048;-70
2022/07/12 08:12:46;;;;;;;2.97;1.50;;;;;;;;;;5078441;28;20507;-70
2022/07/12 08:15:13;;;;;;;3.25;1.52;;;;;;;;;;5081551;28;20044;-70
2022/07/12 08:17:39;;;;;;;2.63;1.10;;;;;;;;;;5089510;28;20052;-70
2022/07/12 08:20:15;;;;;;;2.45;1.15;;;;;;;;;;5091473;28;20067;-70
2022/07/12 08:23:02;;;;;;;3.28;1.55;;;;;;;;;;5091137;28;20139;-70
2022/07/12 08:25:28;;;;;;;;;;;;;;;;;;5091621;28;20048;-63
2022/07/12 08:27:55;;;;;;;;;;;;;;;;;;5084263;28;20433;-63
2022/07/12 08:30:21;;;;;;;3.25;1.55;;;;;;;;;;5081910;28;19924;-63
2022/07/12 08:32:48;;;;;;;;;;;;;;;;;;5091097;28;20044;-63
2022/07/12 08:35:14;;;;;;;1.35;0.70;;;;;;;;;;5091280;28;20641;-63
2022/07/12 08:37:41;;;;;;;;;;;;;;;;;;5090445;28;20434;-62
2022/07/12 08:40:08;;;;;;;4.60;1.40;;;;;;;;;;5090797;28;19923;-62
2022/07/12 08:42:35;;;;;;;4.35;1.27;;;;;;;;;;5091179;28;20121;-62
2022/07/12 08:45:02;;;;;;;3.63;1.40;;;;;;;;;;5089030;28;20048;-63
2022/07/12 08:47:29;;;;;;;3.85;1.70;;;;;;;;;;5090055;28;20055;-64
2022/07/12 08:50:10;;;;;;;4.35;1.63;;;;;;;;;;5089006;28;20048;-63
2022/07/12 08:52:38;;;;;;;5.97;1.50;;;;;;;;;;5093979;28;20044;-63
2022/07/12 08:55:24;;;;;;;4.18;1.23;;;;;;;;;;5094203;28;20089;-63
2022/07/12 08:57:58;;;;;;;3.40;1.40;;;;;;;;;;5093475;28;20039;-64
2022/07/12 09:00:25;;;;;;;2.15;1.17;;;;;;;;;;5091818;28;20097;-63
2022/07/12 09:02:53;;;;;;;6.32;1.40;;;;;;;;;;5086284;28;20054;-63
2022/07/12 09:05:21;;;;;;;4.53;1.30;;;;;;;;;;5093701;28;20572;-63
2022/07/12 09:07:48;;;;;;;1.73;1.00;;;;;;;;;;5093559;28;20098;-63
2022/07/12 09:10:16;;;;;;;4.15;1.10;;;;;;;;;;5093818;28;20044;-63
2022/07/12 09:12:42;;;;;;;1.15;1.08;;;;;;;;;;5092196;28;20052;-63
2022/07/12 09:15:16;;;;;;;4.75;1.48;;;;;;;;;;5093856;28;20050;-63
2022/07/12 09:18:03;;;;;;;2.35;1.35;;;;;;;;;;5093432;28;20044;-63
2022/07/12 09:20:36;;;;;;;3.45;1.20;;;;;;;;;;5093485;28;20079;-63
2022/07/12 09:23:04;;;;;;;3.15;1.20;;;;;;;;;;5093563;28;20052;-62
2022/07/12 09:25:33;;;;;;;3.67;1.00;;;;;;;;;;5093274;28;20051;-62
2022/07/12 09:28:03;;;;;;;2.38;1.08;;;;;;;;;;5093364;28;20048;-62
2022/07/12 09:30:29;;;;;;;1.42;1.05;;;;;;;;;;5093464;28;20101;-62
2022/07/12 09:36:07;;;;;;;2.70;1.00;;;;;;;;;;5093127;28;20640;-62
2022/07/12 09:38:38;;;;;;;2.10;1.00;;;;;;;;;;5091289;28;20044;-63
2022/07/12 09:41:08;;;;;;;2.60;1.10;;;;;;;;;;5091750;28;20055;-62
2022/07/12 09:43:34;;;;;;;1.75;0.95;;;;;;;;;;5092899;28;20153;-62
2022/07/12 09:46:01;;;;;;;1.52;0.85;;;;;;;;;;5092815;28;20093;-62
2022/07/12 09:48:28;;;;;;;1.63;1.15;;;;;;;;;;5093189;28;20147;-62
2022/07/12 09:50:56;;;;;;;2.55;1.20;;;;;;;;;;5092448;28;20082;-62
2022/07/12 09:53:27;;;;;;;1.15;0.80;;;;;;;;;;5092992;28;20044;-62
2022/07/12 09:55:54;;;;;;;1.67;0.95;;;;;;;;;;5091724;28;20048;-62
2022/07/12 09:58:26;;;;;;;1.40;0.80;;;;;;;;;;5092478;28;20051;-62
2022/07/12 10:00:53;;;;;;;2.50;0.88;;;;;;;;;;5090756;28;20105;-62
2022/07/12 10:03:20;;;;;;;1.15;0.82;;;;;;;;;;5093125;28;20059;-62
2022/07/12 10:05:48;;;;;;;3.35;1.00;;;;;;;;;;5092570;28;20090;-62
2022/07/12 10:08:14;;;;;;;1.13;0.90;;;;;;;;;;5092533;28;20120;-62
2022/07/12 10:10:41;;;;;;;1.13;1.02;;;;;;;;;;5092445;28;20058;-63
2022/07/12 10:13:08;;;;;;;0.70;0.57;;;;;;;;;;5092365;28;20077;-62
2022/07/12 10:15:34;;;;;;;1.10;0.60;;;;;;;;;;5092704;28;20442;-63
2022/07/12 10:18:02;;;;;;;2.38;0.63;;;;;;;;;;5092394;28;20044;-62
2022/07/12 10:20:29;;;;;;;3.10;0.90;;;;;;;;;;5092566;28;20131;-62
2022/07/12 10:23:15;;;;;;;1.63;1.00;;;;;;;;;;5092276;28;20109;-62
2022/07/12 10:25:42;;;;;;;2.67;0.90;;;;;;;;;;5092031;28;20057;-62
2022/07/12 10:28:09;;;;;;;0.73;0.63;;;;;;;;;;5092445;28;20105;-62
2022/07/12 10:30:43;;;;;;;1.42;0.80;;;;;;;;;;5092338;28;20056;-63
2022/07/12 10:33:15;;;;;;;0.77;0.70;;;;;;;;;;5092350;28;20121;-62
2022/07/12 10:35:57;;;;;;;1.10;0.73;;;;;;;;;;5092199;28;20048;-62
2022/07/12 10:38:25;;;;;;;1.05;0.77;;;;;;;;;;5088293;28;20098;-62
2022/07/12 10:40:52;;;;;;;1.08;0.90;;;;;;;;;;5089320;28;20051;-62
2022/07/12 10:44:04;;;;;;;1.42;0.77;;;;;;;;;;5091872;28;20392;-62
2022/07/12 10:46:20;;;;;;;1.95;1.05;;;;;;;;;;5091726;28;20434;-62
2022/07/12 10:48:47;;;;;;;1.65;0.77;;;;;;;;;;5090826;28;20060;-62
2022/07/12 10:51:13;;;;;;;;;;;;;;;;;;5092035;28;20445;-62
2022/07/12 10:53:42;;;;;;;1.85;1.10;;;;;;;;;;5091846;28;19924;-62
2022/07/12 10:56:15;;;;;;;2.42;1.00;;;;;;;;;;5091667;28;20044;-62
2022/07/12 10:58:46;;;;;;;2.03;1.00;;;;;;;;;;5089692;28;20048;-62
2022/07/12 11:01:17;;;;;;;1.20;1.10;;;;;;;;;;5086948;28;20476;-61
2022/07/12 11:04:10;;;;;;;2.90;1.30;;;;;;;;;;5086362;28;20056;-62
2022/07/12 11:06:38;;;;;;;3.20;1.15;;;;;;;;;;5087069;28;20059;-62
2022/07/12 11:09:07;;;;;;;2.63;1.10;;;;;;;;;;5091321;28;20134;-61
2022/07/12 11:11:35;;;;;;;2.65;1.17;;;;;;;;;;5091277;28;20573;-62
2022/07/12 11:14:02;;;;;;;3.88;1.23;;;;;;;;;;5091502;28;20105;-62
2022/07/12 11:16:29;;;;;;;2.60;1.00;;;;;;;;;;5083582;28;20095;-61
2022/07/12 11:18:56;;;;;;;2.40;1.10;;;;;;;;;;5091668;28;20052;-61
2022/07/12 11:21:23;;;;;;;1.67;1.10;;;;;;;;;;5091029;28;20184;-61
2022/07/12 11:23:50;;;;;;;2.05;1.05;;;;;;;;;;5090704;28;20119;-62
2022/07/12 11:26:17;;;;;;;;;;;;;;;;;;5091471;28;20056;-61
2022/07/12 11:28:44;;;;;;;2.47;1.15;;;;;;;;;;5090756;28;20363;-61
2022/07/12 11:31:11;;;;;;;3.97;1.00;;;;;;;;;;5091403;28;20442;-61
2022/07/12 11:33:39;;;;;;;1.02;0.93;;;;;;;;;;5090984;28;20040;-61
2022/07/12 11:36:07;;;;;;;3.90;0.80;;;;;;;;;;5089683;28;20047;-62
2022/07/12 11:38:34;;;;;;;1.48;0.80;;;;;;;;;;5091664;28;20052;-62
2022/07/12 11:41:09;;;;;;;2.10;0.82;;;;;;;;;;5091007;28;20040;-61
2022/07/12 11:43:37;;;;;;;2.58;1.02;;;;;;;;;;5090934;28;20073;-62
2022/07/12 11:46:04;;;;;;;2.22;1.00;;;;;;;;;;5090771;28;20070;-62
2022/07/12 11:48:33;;;;;;;2.30;1.10;;;;;;;;;;5090056;28;20048;-62
2022/07/12 11:51:02;;;;;;;2.97;1.25;;;;;;;;;;5090305;28;20056;-62
2022/07/12 11:53:29;;;;;;;1.98;1.20;;;;;;;;;;5089266;28;20048;-62
2022/07/12 11:55:57;;;;;;;3.13;1.20;;;;;;;;;;5090881;28;20040;-63
2022/07/12 11:58:24;;;;;;;4.35;1.00;;;;;;;;;;5090348;28;20457;-62
2022/07/12 12:00:51;;;;;;;1.90;1.30;;;;;;;;;;5088399;28;20562;-62
2022/07/12 12:03:19;;;;;;;5.90;1.50;;;;;;;;;;5090418;28;20113;-63
2022/07/12 12:05:52;;;;;;;2.50;1.23;;;;;;;;;;5088997;28;20521;-63
2022/07/12 12:08:21;;;;;;;1.35;1.10;;;;;;;;;;5090634;28;20052;-63
2022/07/12 12:10:54;;;;;;;1.00;1.00;;;;;;;;;;5090759;28;20396;-63
2022/07/12 12:13:21;;;;;;;2.90;1.13;;;;;;;;;;5090585;28;20531;-63
2022/07/12 12:15:52;;;;;;;2.20;0.80;;;;;;;;;;5090744;28;20105;-63
2022/07/12 12:18:28;;;;;;;2.45;0.60;;;;;;;;;;5091586;28;20101;-63
2022/07/12 12:21:13;;;;;;;1.58;0.50;;;;;;;;;;5094957;28;20090;-63
2022/07/12 12:23:40;;;;;;;1.27;0.63;;;;;;;;;;5094600;28;20056;-63
2022/07/12 12:26:16;;;;;;;1.42;0.50;;;;;;;;;;5094760;28;20047;-63
2022/07/12 12:28:44;;;;;;;1.65;0.40;;;;;;;;;;5094500;28;20044;-63
2022/07/12 12:31:11;;;;;;;2.60;0.77;;;;;;;;;;5094364;28;20044;-62
2022/07/12 12:33:41;;;;;;;1.20;0.70;;;;;;;;;;5094296;28;20407;-63
2022/07/12 12:36:11;;;;;;;1.15;0.77;;;;;;;;;;5094313;28;20131;-64
2022/07/12 12:38:38;;;;;;;2.88;0.80;;;;;;;;;;5094313;28;20055;-63
2022/07/12 12:41:05;;;;;;;2.28;0.60;;;;;;;;;;5094230;28;20059;-63
2022/07/12 12:43:32;;;;;;;3.97;0.80;;;;;;;;;;5094407;28;20083;-62
2022/07/12 12:45:59;;;;;;;3.35;0.70;;;;;;;;;;5094132;28;20048;-63
2022/07/12 12:48:25;;;;;;;;;;;;;;;;;;5094842;28;20048;-63
2022/07/12 12:50:53;;;;;;;0.52;0.38;;;;;;;;;;5093948;28;19923;-63
2022/07/12 12:53:19;;;;;;;1.83;0.65;;;;;;;;;;5092140;28;20048;-63
2022/07/12 12:55:47;;;;;;;1.88;0.60;;;;;;;;;;5094431;28;20044;-63
2022/07/12 12:58:14;;;;;;;0.77;0.40;;;;;;;;;;5094410;28;20094;-63
2022/07/12 13:00:42;;;;;;;0.50;0.50;;;;;;;;;;5091146;28;20390;-63
2022/07/12 13:03:10;;;;;;;7.05;0.60;;;;;;;;;;5093895;28;20044;-63
2022/07/12 13:05:37;;;;;;;2.83;0.60;;;;;;;;;;5093942;28;20062;-63
2022/07/12 13:08:04;;;;;;;0.85;0.50;;;;;;;;;;5094012;28;20048;-63
2022/07/12 13:10:31;;;;;;;0.40;0.30;;;;;;;;;;5093931;28;20047;-63
2022/07/12 13:12:59;;;;;;;1.20;0.30;;;;;;;;;;5094010;28;20056;-63
2022/07/12 13:15:26;;;;;;;1.40;0.30;;;;;;;;;;5093913;28;20113;-63
2022/07/12 13:17:52;;;;;;;0.68;0.30;;;;;;;;;;5092294;28;20412;-63
2022/07/12 13:20:19;;;;;;;0.40;0.30;;;;;;;;;;5093344;28;20415;-63
2022/07/12 13:22:46;;;;;;;1.02;0.38;;;;;;;;;;5093471;28;20043;-63
2022/07/12 13:25:13;;;;;;;1.23;0.30;;;;;;;;;;5093570;28;20058;-63
2022/07/12 13:27:41;;;;;;;0.55;0.30;;;;;;;;;;5093425;28;20149;-63
2022/07/12 13:30:08;;;;;;;1.08;0.30;;;;;;;;;;5093459;28;20081;-62
2022/07/12 13:32:35;;;;;;;0.63;0.50;;;;;;;;;;5093511;28;20450;-62
2022/07/12 13:35:02;;;;;;;1.15;0.32;;;;;;;;;;5093460;28;20464;-63
2022/07/12 13:37:28;;;;;;;1.52;0.57;;;;;;;;;;5093252;28;20051;-63
2022/07/12 13:40:10;;;;;;;1.02;0.43;;;;;;;;;;5092852;28;20056;-63
2022/07/12 13:42:37;;;;;;;0.52;0.30;;;;;;;;;;5093463;28;20082;-63
2022/07/12 13:45:03;;;;;;;4.35;0.50;;;;;;;;;;5093210;28;20105;-63
2022/07/12 13:47:30;;;;;;;0.52;0.40;;;;;;;;;;5093191;28;20048;-63
2022/07/12 13:49:57;;;;;;;0.70;0.40;;;;;;;;;;5092842;28;20508;-63
2022/07/12 13:52:24;;;;;;;0.35;0.35;;;;;;;;;;5084697;28;20048;-62
2022/07/12 13:54:50;;;;;;;0.50;0.50;;;;;;;;;;5091604;28;20048;-63
2022/07/12 13:57:17;;;;;;;1.13;0.57;;;;;;;;;;5093074;28;20105;-63
2022/07/12 13:59:44;;;;;;;1.48;0.55;;;;;;;;;;5088978;28;20094;-63
2022/07/12 14:02:10;;;;;;;0.50;0.50;;;;;;;;;;5092125;28;20082;-62
2022/07/12 14:04:37;;;;;;;;;;;;;;;;;;5093016;28;20130;-63
2022/07/12 14:07:03;;;;;;;2.30;0.57;;;;;;;;;;5092356;28;19950;-63
2022/07/12 14:09:30;;;;;;;1.00;0.70;;;;;;;;;;5092580;28;20052;-63
2022/07/12 14:11:56;;;;;;;1.25;0.75;;;;;;;;;;5092274;28;20044;-70
2022/07/12 14:15:13;;;;;;;1.52;0.85;;;;;;;;;;5091291;28;20044;-71
2022/07/12 14:17:12;;;;;;;0.65;0.65;;;;;;;;;;5092779;28;20468;-71
2022/07/12 14:19:39;;;;;;;1.20;0.68;;;;;;;;;;5093032;28;20480;-71
2022/07/12 14:22:05;;;;;;;0.82;0.60;;;;;;;;;;5091888;28;20052;-71
2022/07/12 14:24:32;;;;;;;;;;;;;;;;;;5093445;28;20534;-70
2022/07/12 14:26:58;;;;;;;2.05;0.60;;;;;;;;;;5083895;28;19962;-64
2022/07/12 14:29:25;;;;;;;1.55;0.75;;;;;;;;;;5092528;28;20048;-64
2022/07/12 14:31:52;;;;;;;2.83;0.50;;;;;;;;;;5092310;28;20101;-64
2022/07/12 14:34:19;;;;;;;1.77;0.47;;;;;;;;;;5092347;28;20044;-63
2022/07/12 14:36:45;;;;;;;0.45;0.45;;;;;;;;;;5091998;28;20121;-64
2022/07/12 14:39:12;;;;;;;1.27;0.50;;;;;;;;;;5092022;28;20048;-64
2022/07/12 14:41:39;;;;;;;;;;;;;;;;;;5090454;28;20058;-64
2022/07/12 14:44:06;;;;;;;0.60;0.60;;;;;;;;;;5091588;28;19928;-64
2022/07/12 14:46:33;;;;;;;0.50;0.50;;;;;;;;;;5091523;28;20044;-64
2022/07/12 14:49:00;;;;;;;1.20;0.68;;;;;;;;;;5091604;28;20112;-64
2022/07/12 14:51:27;;;;;;;;;;;;;;;;;;5092144;28;20105;-64
2022/07/12 14:53:53;;;;;;;;;;;;;;;;;;5092156;28;20437;-64
2022/07/12 14:56:20;;;;;;;0.85;0.50;;;;;;;;;;5091708;28;20430;-64
2022/07/12 14:58:46;;;;;;;0.63;0.63;;;;;;;;;;5091356;28;20146;-64
2022/07/12 15:01:13;;;;;;;1.80;0.70;;;;;;;;;;5091327;28;20056;-64
2022/07/12 15:03:39;;;;;;;0.55;0.55;;;;;;;;;;5091924;28;20047;-64